Time,TemperatureF,DewpointF,PressureIn,WindDirection,WindDirectionDegrees,WindSpeedMPH,WindSpeedGustMPH,Humidity,HourlyPrecipIn,Conditions,Clouds,dailyrainin,SoftwareType,DateUTC
2013-09-24 00:02:00,46.6,31.3,29.93,ESE,105,0.0,0.0,55,0.00,,CLR,0.00,VWS V14.01,2013-09-24 05:02:00,
2013-09-24 00:07:00,46.4,31.1,29.93,ESE,105,0.0,0.0,55,0.00,,CLR,0.00,VWS V14.01,2013-09-24 05:07:00,
2013-09-24 00:12:00,46.2,31.0,29.93,ESE,105,0.0,0.0,55,0.00,,CLR,0.00,VWS V14.01,2013-09-24 05:12:00,
2013-09-24 00:17:00,46.0,31.2,29.93,ESE,105,0.0,0.0,56,0.00,,CLR,0.00,VWS V14.01,2013-09-24 05:17:00,
2013-09-24 00:23:00,45.9,31.1,29.93,ESE,105,0.0,0.0,56,0.00,,CLR,0.00,VWS V14.01,2013-09-24 05:23:00,
2013-09-24 00:29:00,45.7,30.9,29.93,ESE,105,0.0,0.0,56,0.00,,CLR,0.00,VWS V14.01,2013-09-24 05:29:00,
2013-09-24 00:34:00,45.5,31.2,29.91,ESE,105,0.0,0.0,57,0.00,,CLR,0.00,VWS V14.01,2013-09-24 05:34:00,
2013-09-24 00:39:00,45.3,31.0,29.91,ESE,105,0.0,0.0,57,0.00,,CLR,0.00,VWS V14.01,2013-09-24 05:39:00,
2013-09-24 00:45:00,45.3,31.0,29.91,ESE,105,0.0,0.0,57,0.00,,CLR,0.00,VWS V14.01,2013-09-24 05:45:00,
2013-09-24 00:50:00,45.3,31.4,29.93,ESE,105,0.0,0.0,58,0.00,,CLR,0.00,VWS V14.01,2013-09-24 05:50:00,
2013-09-24 00:55:00,45.1,31.3,29.93,ESE,105,0.0,0.0,58,0.00,,CLR,0.00,VWS V14.01,2013-09-24 05:55:00,
2013-09-24 01:01:00,45.1,31.3,29.93,ESE,105,0.0,0.0,58,0.00,,CLR,0.00,VWS V14.01,2013-09-24 06:01:00,
2013-09-24 01:06:00,45.1,31.7,29.91,ESE,105,0.0,0.0,59,0.00,,CLR,0.00,VWS V14.01,2013-09-24 06:06:00,
2013-09-24 01:12:00,45.1,31.7,29.91,ESE,105,0.0,0.0,59,0.00,,CLR,0.00,VWS V14.01,2013-09-24 06:12:00,
2013-09-24 01:17:00,45.1,31.7,29.91,ESE,105,0.0,0.0,59,0.00,,CLR,0.00,VWS V14.01,2013-09-24 06:17:00,
2013-09-24 01:22:00,45.1,32.1,29.93,ESE,105,0.0,0.0,60,0.00,,CLR,0.00,VWS V14.01,2013-09-24 06:22:00,
2013-09-24 01:28:00,45.1,32.1,29.93,ESE,105,0.0,0.0,60,0.00,,CLR,0.00,VWS V14.01,2013-09-24 06:28:00,
2013-09-24 01:33:00,45.1,32.1,29.93,ESE,105,0.0,0.0,60,0.00,,CLR,0.00,VWS V14.01,2013-09-24 06:33:00,
2013-09-24 01:38:00,45.1,32.1,29.93,ESE,105,0.0,0.0,60,0.00,,CLR,0.00,VWS V14.01,2013-09-24 06:38:00,
2013-09-24 01:43:00,45.0,32.3,29.93,ESE,105,0.0,0.0,61,0.00,,CLR,0.00,VWS V14.01,2013-09-24 06:43:00,
2013-09-24 01:48:00,45.0,32.3,29.93,ESE,105,0.0,0.0,61,0.00,,CLR,0.00,VWS V14.01,2013-09-24 06:48:00,
2013-09-24 01:54:00,45.0,32.7,29.93,ESE,105,0.0,0.0,62,0.00,,CLR,0.00,VWS V14.01,2013-09-24 06:54:00,
2013-09-24 01:59:00,45.0,32.7,29.93,ESE,105,0.0,0.0,62,0.00,,CLR,0.00,VWS V14.01,2013-09-24 06:59:00,
2013-09-24 02:04:00,45.1,32.9,29.93,ESE,105,0.0,0.0,62,0.00,,CLR,0.00,VWS V14.01,2013-09-24 07:04:00,
2013-09-24 02:10:00,45.1,33.3,29.93,ESE,105,0.0,0.0,63,0.00,,CLR,0.00,VWS V14.01,2013-09-24 07:10:00,
2013-09-24 02:15:00,45.1,33.3,29.93,ESE,105,0.0,0.0,63,0.00,,CLR,0.00,VWS V14.01,2013-09-24 07:15:00,
2013-09-24 02:20:00,45.1,33.3,29.93,ESE,105,0.0,0.0,63,0.00,,CLR,0.00,VWS V14.01,2013-09-24 07:20:00,
2013-09-24 02:26:00,45.3,33.9,29.93,ESE,105,0.0,0.0,64,0.00,,CLR,0.00,VWS V14.01,2013-09-24 07:26:00,
2013-09-24 02:31:00,45.3,33.9,29.93,ESE,105,0.0,0.0,64,0.00,,CLR,0.00,VWS V14.01,2013-09-24 07:31:00,
2013-09-24 02:36:00,45.3,33.9,29.91,ESE,105,0.0,0.0,64,0.00,,CLR,0.00,VWS V14.01,2013-09-24 07:36:00,
2013-09-24 02:42:00,45.5,34.4,29.91,ESE,105,0.0,0.0,65,0.00,,CLR,0.00,VWS V14.01,2013-09-24 07:42:00,
2013-09-24 02:47:00,45.7,34.6,29.91,ESE,105,0.0,0.0,65,0.00,,CLR,0.00,VWS V14.01,2013-09-24 07:47:00,
2013-09-24 02:53:00,45.9,35.2,29.91,ESE,105,0.0,0.0,66,0.00,,CLR,0.00,VWS V14.01,2013-09-24 07:53:00,
2013-09-24 02:59:00,45.9,35.2,29.91,ESE,105,0.0,0.0,66,0.00,,CLR,0.00,VWS V14.01,2013-09-24 07:59:00,
2013-09-24 03:04:00,45.9,35.2,29.91,ESE,105,0.0,0.0,66,0.00,,,0.00,VWS V14.01,2013-09-24 08:04:00,
2013-09-24 03:10:00,45.5,34.8,29.91,ESE,105,0.0,0.0,66,0.00,,,0.00,VWS V14.01,2013-09-24 08:10:00,
2013-09-24 03:16:00,45.1,34.5,29.91,ESE,105,0.0,0.0,66,0.00,,,0.00,VWS V14.01,2013-09-24 08:16:00,
2013-09-24 03:21:00,45.0,34.3,29.91,ESE,105,0.0,0.0,66,0.00,,,0.00,VWS V14.01,2013-09-24 08:21:00,
2013-09-24 03:27:00,44.6,34.3,29.91,ESE,105,0.0,0.0,67,0.00,,,0.00,VWS V14.01,2013-09-24 08:27:00,
2013-09-24 03:32:00,44.4,34.5,29.91,ESE,105,0.0,0.0,68,0.00,,,0.00,VWS V14.01,2013-09-24 08:32:00,
2013-09-24 03:37:00,44.2,34.4,29.91,ESE,105,0.0,0.0,68,0.00,,,0.00,VWS V14.01,2013-09-24 08:37:00,
2013-09-24 03:42:00,44.2,34.4,29.91,ESE,105,0.0,0.0,68,0.00,,,0.00,VWS V14.01,2013-09-24 08:42:00,
2013-09-24 03:47:00,44.1,34.6,29.91,ESE,105,0.0,0.0,69,0.00,,,0.00,VWS V14.01,2013-09-24 08:47:00,
2013-09-24 03:53:00,44.1,34.6,29.93,ESE,105,0.0,0.0,69,0.00,,,0.00,VWS V14.01,2013-09-24 08:53:00,
2013-09-24 03:58:00,43.9,34.4,29.93,ESE,105,0.0,0.0,69,0.00,,,0.00,VWS V14.01,2013-09-24 08:58:00,
2013-09-24 04:03:00,43.7,34.2,29.91,ESE,105,0.0,0.0,69,0.00,,,0.00,VWS V14.01,2013-09-24 09:03:00,
2013-09-24 04:09:00,43.7,34.6,29.91,ESE,105,0.0,0.0,70,0.00,,,0.00,VWS V14.01,2013-09-24 09:09:00,
2013-09-24 04:15:00,43.9,34.7,29.91,ESE,105,0.0,0.0,70,0.00,,,0.00,VWS V14.01,2013-09-24 09:15:00,
2013-09-24 04:20:00,43.9,34.7,29.93,ESE,105,0.0,0.0,70,0.00,,,0.00,VWS V14.01,2013-09-24 09:20:00,
2013-09-24 04:25:00,44.1,34.9,29.93,ESE,105,0.0,0.0,70,0.00,,,0.00,VWS V14.01,2013-09-24 09:25:00,
2013-09-24 04:30:00,44.1,35.3,29.93,ESE,105,0.0,0.0,71,0.00,,,0.00,VWS V14.01,2013-09-24 09:30:00,
2013-09-24 04:35:00,44.2,35.5,29.93,ESE,105,0.0,0.0,71,0.00,,,0.00,VWS V14.01,2013-09-24 09:35:00,
2013-09-24 04:41:00,44.6,35.8,29.93,ESE,105,0.0,0.0,71,0.00,,,0.00,VWS V14.01,2013-09-24 09:41:00,
2013-09-24 04:46:00,44.8,36.0,29.93,ESE,105,0.0,0.0,71,0.00,,,0.00,VWS V14.01,2013-09-24 09:46:00,
2013-09-24 04:52:00,45.0,36.1,29.93,ESE,105,0.0,0.0,71,0.00,,,0.00,VWS V14.01,2013-09-24 09:52:00,
2013-09-24 04:57:00,45.3,36.8,29.93,ESE,105,0.0,0.0,72,0.00,,,0.00,VWS V14.01,2013-09-24 09:57:00,
2013-09-24 05:02:00,45.7,37.2,29.93,ESE,105,0.0,0.0,72,0.00,,,0.00,VWS V14.01,2013-09-24 10:02:00,
2013-09-24 05:08:00,46.4,38.2,29.93,ESE,105,0.0,0.0,73,0.00,,,0.00,VWS V14.01,2013-09-24 10:08:00,
2013-09-24 05:14:00,46.9,38.8,29.93,ESE,105,0.0,0.0,73,0.00,,,0.00,VWS V14.01,2013-09-24 10:14:00,
2013-09-24 05:20:00,47.3,39.1,29.93,SSE,152,0.0,0.0,73,0.00,,,0.00,VWS V14.01,2013-09-24 10:20:00,
2013-09-24 05:25:00,47.5,39.6,29.93,SSE,152,0.0,0.0,74,0.00,,,0.00,VWS V14.01,2013-09-24 10:25:00,
2013-09-24 05:31:00,47.7,39.8,29.93,SSE,152,0.0,0.0,74,0.00,,,0.00,VWS V14.01,2013-09-24 10:31:00,
2013-09-24 05:37:00,47.8,40.0,29.93,SSE,152,0.0,0.0,74,0.00,,,0.00,VWS V14.01,2013-09-24 10:37:00,
2013-09-24 05:42:00,48.0,40.1,29.93,SSE,152,0.0,0.0,74,0.00,,,0.00,VWS V14.01,2013-09-24 10:42:00,
2013-09-24 05:48:00,48.2,40.3,29.93,SSE,152,0.0,0.0,74,0.00,,,0.00,VWS V14.01,2013-09-24 10:48:00,
2013-09-24 05:53:00,48.4,40.5,29.93,SSE,152,0.0,0.0,74,0.00,,,0.00,VWS V14.01,2013-09-24 10:53:00,
2013-09-24 05:59:00,48.6,40.7,29.93,SSE,152,0.0,0.0,74,0.00,,,0.00,VWS V14.01,2013-09-24 10:59:00,
2013-09-24 06:04:00,48.7,40.8,29.93,SSE,152,0.0,0.0,74,0.00,,,0.00,VWS V14.01,2013-09-24 11:04:00,
2013-09-24 06:10:00,48.7,40.8,29.93,SSE,152,0.0,0.0,74,0.00,,,0.00,VWS V14.01,2013-09-24 11:10:00,
2013-09-24 06:16:00,48.6,40.7,29.93,SSE,152,0.0,0.0,74,0.00,,,0.00,VWS V14.01,2013-09-24 11:16:00,
2013-09-24 06:21:00,48.6,40.7,29.93,SSE,152,0.0,0.0,74,0.00,,,0.00,VWS V14.01,2013-09-24 11:21:00,
2013-09-24 06:27:00,48.4,40.5,29.93,SSE,152,0.0,0.0,74,0.00,,,0.00,VWS V14.01,2013-09-24 11:27:00,
2013-09-24 06:33:00,48.2,40.3,29.93,SSE,152,0.0,0.0,74,0.00,,,0.00,VWS V14.01,2013-09-24 11:33:00,
2013-09-24 06:38:00,48.0,40.5,29.93,SSE,152,0.0,0.0,75,0.00,,,0.00,VWS V14.01,2013-09-24 11:38:00,
2013-09-24 06:44:00,47.8,40.3,29.93,SSE,152,0.0,0.0,75,0.00,,,0.00,VWS V14.01,2013-09-24 11:44:00,
2013-09-24 06:49:00,47.7,40.1,29.93,SSE,152,0.0,0.0,75,0.00,,,0.00,VWS V14.01,2013-09-24 11:49:00,
2013-09-24 06:55:00,47.7,40.1,29.93,SSE,152,0.0,0.0,75,0.00,,,0.00,VWS V14.01,2013-09-24 11:55:00,
2013-09-24 07:01:00,47.8,40.7,29.93,SSE,152,0.0,0.0,76,0.00,,,0.00,VWS V14.01,2013-09-24 12:01:00,
2013-09-24 07:06:00,47.8,40.7,29.93,SSE,152,0.0,0.0,76,0.00,,,0.00,VWS V14.01,2013-09-24 12:06:00,
2013-09-24 07:12:00,47.8,40.7,29.93,SSE,152,0.0,0.0,76,0.00,,,0.00,VWS V14.01,2013-09-24 12:12:00,
2013-09-24 07:18:00,47.8,40.7,29.93,SSE,152,0.0,0.0,76,0.00,,,0.00,VWS V14.01,2013-09-24 12:18:00,
2013-09-24 07:23:00,48.0,40.8,29.93,SSE,152,0.0,0.0,76,0.00,,,0.00,VWS V14.01,2013-09-24 12:23:00,
2013-09-24 07:29:00,48.4,41.5,29.93,East,94,0.0,0.0,77,0.00,,,0.00,VWS V14.01,2013-09-24 12:29:00,
2013-09-24 07:34:00,48.7,41.9,29.93,ESE,109,0.0,0.0,77,0.00,,,0.00,VWS V14.01,2013-09-24 12:34:00,
2013-09-24 07:40:00,49.3,42.7,29.93,ESE,111,0.0,0.0,78,0.00,,,0.00,VWS V14.01,2013-09-24 12:40:00,
2013-09-24 07:45:00,49.6,43.1,29.93,ESE,111,0.0,0.0,78,0.00,,,0.00,VWS V14.01,2013-09-24 12:45:00,
2013-09-24 07:50:00,50.0,43.4,29.93,ESE,105,0.0,0.0,78,0.00,,,0.00,VWS V14.01,2013-09-24 12:50:00,
2013-09-24 07:55:00,50.4,43.8,29.93,ESE,106,0.0,0.0,78,0.00,,,0.00,VWS V14.01,2013-09-24 12:55:00,
2013-09-24 08:00:00,50.7,44.5,29.93,SE,126,0.0,0.0,79,0.00,,,0.00,VWS V14.01,2013-09-24 13:00:00,
2013-09-24 08:05:00,50.9,44.6,29.93,ESE,116,4.0,4.0,79,0.00,,,0.00,VWS V14.01,2013-09-24 13:05:00,
2013-09-24 08:10:00,51.3,45.0,29.93,ESE,104,0.0,4.0,79,0.00,,,0.00,VWS V14.01,2013-09-24 13:10:00,
2013-09-24 08:16:00,51.6,45.3,29.93,ESE,110,4.0,4.0,79,0.00,,,0.00,VWS V14.01,2013-09-24 13:16:00,
2013-09-24 08:21:00,51.8,45.5,29.93,ESE,112,0.0,3.6,79,0.00,,,0.00,VWS V14.01,2013-09-24 13:21:00,
2013-09-24 08:26:00,52.2,45.8,29.93,East,100,0.0,0.0,79,0.00,,,0.00,VWS V14.01,2013-09-24 13:26:00,
2013-09-24 08:31:00,52.3,46.4,29.93,SSE,161,0.0,5.8,80,0.00,,,0.00,VWS V14.01,2013-09-24 13:31:00,
2013-09-24 08:36:00,52.7,46.7,29.93,SE,138,0.0,2.7,80,0.00,,,0.00,VWS V14.01,2013-09-24 13:36:00,
2013-09-24 08:41:00,53.1,47.4,29.93,South,170,3.6,3.6,81,0.00,,,0.00,VWS V14.01,2013-09-24 13:41:00,
2013-09-24 08:47:00,53.4,47.7,29.93,SE,129,0.0,0.0,81,0.00,,,0.00,VWS V14.01,2013-09-24 13:47:00,
2013-09-24 08:52:00,54.0,48.3,29.93,South,177,2.7,2.7,81,0.00,,,0.00,VWS V14.01,2013-09-24 13:52:00,
2013-09-24 08:58:00,54.5,49.1,29.93,East,97,3.6,4.0,82,0.00,,,0.00,VWS V14.01,2013-09-24 13:58:00,
2013-09-24 09:03:00,54.9,49.8,29.93,ESE,104,0.0,3.1,83,0.00,,CLR,0.00,VWS V14.01,2013-09-24 14:03:00,
2013-09-24 09:09:00,55.4,50.3,29.93,South,177,3.6,3.6,83,0.00,,CLR,0.00,VWS V14.01,2013-09-24 14:09:00,
2013-09-24 09:15:00,55.9,51.2,29.93,SE,124,4.0,4.9,84,0.00,,CLR,0.00,VWS V14.01,2013-09-24 14:15:00,
2013-09-24 09:21:00,56.8,52.1,29.93,East,97,6.3,8.7,84,0.00,,CLR,0.00,VWS V14.01,2013-09-24 14:21:00,
2013-09-24 09:26:00,57.4,52.3,29.93,SSE,165,3.1,5.4,83,0.00,,CLR,0.00,VWS V14.01,2013-09-24 14:26:00,
2013-09-24 09:31:00,57.4,50.6,29.93,South,181,0.0,4.5,78,0.00,,CLR,0.00,VWS V14.01,2013-09-24 14:31:00,
2013-09-24 09:36:00,58.1,50.2,29.93,SSE,167,2.2,3.1,75,0.00,,CLR,0.00,VWS V14.01,2013-09-24 14:36:00,
2013-09-24 09:41:00,58.3,46.6,29.93,ESE,123,0.0,3.6,65,0.00,,CLR,0.00,VWS V14.01,2013-09-24 14:41:00,
2013-09-24 09:47:00,58.8,42.7,29.93,SE,125,4.0,4.0,55,0.00,,CLR,0.00,VWS V14.01,2013-09-24 14:47:00,
2013-09-24 09:53:00,59.5,41.9,29.93,ESE,104,0.0,4.0,52,0.00,,CLR,0.00,VWS V14.01,2013-09-24 14:53:00,
2013-09-24 09:58:00,59.9,39.1,29.93,SE,139,5.4,5.4,46,0.00,,CLR,0.00,VWS V14.01,2013-09-24 14:58:00,
2013-09-24 10:04:00,60.4,40.1,29.93,SSE,158,0.0,8.1,47,0.00,,CLR,0.00,VWS V14.01,2013-09-24 15:04:00,
2013-09-24 10:09:00,60.8,38.2,29.93,ESE,109,6.7,8.1,43,0.00,,CLR,0.00,VWS V14.01,2013-09-24 15:09:00,
2013-09-24 10:15:00,61.2,34.0,29.93,ESE,103,8.1,8.1,36,0.00,,CLR,0.00,VWS V14.01,2013-09-24 15:15:00,
2013-09-24 10:21:00,61.5,33.6,29.93,SSE,158,2.7,3.6,35,0.00,,CLR,0.00,VWS V14.01,2013-09-24 15:21:00,
2013-09-24 10:26:00,61.9,34.0,29.93,SE,131,5.4,6.7,35,0.00,,CLR,0.00,VWS V14.01,2013-09-24 15:26:00,
2013-09-24 10:32:00,62.2,34.3,29.93,ESE,118,4.0,5.8,35,0.00,,CLR,0.00,VWS V14.01,2013-09-24 15:32:00,
2013-09-24 10:38:00,62.8,34.8,29.93,East,101,5.4,6.3,35,0.00,,CLR,0.00,VWS V14.01,2013-09-24 15:38:00,
2013-09-24 10:43:00,63.1,34.3,29.93,ESE,108,3.6,5.8,34,0.00,,CLR,0.00,VWS V14.01,2013-09-24 15:43:00,
2013-09-24 10:48:00,63.5,32.3,29.93,ESE,122,0.0,3.1,31,0.00,,CLR,0.00,VWS V14.01,2013-09-24 15:48:00,
2013-09-24 10:53:00,63.7,31.7,29.93,ESE,122,5.4,5.8,30,0.00,,CLR,0.00,VWS V14.01,2013-09-24 15:53:00,
2013-09-24 10:59:00,64.0,31.2,29.93,SSE,152,3.6,7.6,29,0.00,,CLR,0.00,VWS V14.01,2013-09-24 15:59:00,
2013-09-24 11:04:00,64.4,31.5,29.91,SE,142,2.7,3.1,29,0.00,,CLR,0.00,VWS V14.01,2013-09-24 16:04:00,
2013-09-24 11:10:00,64.8,30.0,29.91,South,191,5.4,8.1,27,0.00,,CLR,0.00,VWS V14.01,2013-09-24 16:10:00,
2013-09-24 11:15:00,65.3,31.4,29.91,SSE,148,6.3,6.3,28,0.00,,CLR,0.00,VWS V14.01,2013-09-24 16:15:00,
2013-09-24 11:20:00,65.7,31.7,29.91,ESE,116,7.2,7.2,28,0.00,,CLR,0.00,VWS V14.01,2013-09-24 16:20:00,
2013-09-24 11:25:00,65.8,31.9,29.91,ESE,109,2.7,4.0,28,0.00,,CLR,0.00,VWS V14.01,2013-09-24 16:25:00,
2013-09-24 11:30:00,66.2,31.3,29.91,ESE,113,5.4,5.4,27,0.00,,CLR,0.00,VWS V14.01,2013-09-24 16:30:00,
2013-09-24 11:35:00,66.6,30.6,29.91,South,183,0.0,5.8,26,0.00,,CLR,0.00,VWS V14.01,2013-09-24 16:35:00,
2013-09-24 11:40:00,66.9,30.0,29.91,NE,51,6.3,6.3,25,0.00,,CLR,0.00,VWS V14.01,2013-09-24 16:40:00,
2013-09-24 11:45:00,67.1,29.1,29.91,ESE,108,3.1,3.1,24,0.00,,CLR,0.00,VWS V14.01,2013-09-24 16:45:00,
2013-09-24 11:50:00,67.5,29.4,29.91,South,169,5.8,5.8,24,0.00,,CLR,0.00,VWS V14.01,2013-09-24 16:50:00,
2013-09-24 11:56:00,67.6,29.6,29.91,South,175,5.8,5.8,24,0.00,,CLR,0.00,VWS V14.01,2013-09-24 16:56:00,
2013-09-24 12:01:00,68.2,29.0,29.91,SSE,151,8.7,8.7,23,0.00,,CLR,0.00,VWS V14.01,2013-09-24 17:01:00,
2013-09-24 12:07:00,68.2,29.0,29.91,SSE,165,6.3,6.3,23,0.00,,CLR,0.00,VWS V14.01,2013-09-24 17:07:00,
2013-09-24 12:12:00,68.4,29.1,29.91,ESE,109,2.7,4.0,23,0.00,,CLR,0.00,VWS V14.01,2013-09-24 17:12:00,
2013-09-24 12:17:00,68.7,29.5,29.91,ESE,111,4.0,5.8,23,0.00,,CLR,0.00,VWS V14.01,2013-09-24 17:17:00,
2013-09-24 12:23:00,69.1,29.8,29.91,East,99,5.4,5.4,23,0.00,,CLR,0.00,VWS V14.01,2013-09-24 17:23:00,
2013-09-24 12:28:00,69.3,29.9,29.91,East,83,8.7,8.7,23,0.00,,CLR,0.00,VWS V14.01,2013-09-24 17:28:00,
2013-09-24 12:33:00,69.4,30.1,29.91,ESE,107,0.0,5.4,23,0.00,,CLR,0.00,VWS V14.01,2013-09-24 17:33:00,
2013-09-24 12:38:00,69.8,29.3,29.91,ESE,107,3.1,5.8,22,0.00,,CLR,0.00,VWS V14.01,2013-09-24 17:38:00,
2013-09-24 12:43:00,69.8,29.3,29.91,South,190,4.9,10.5,22,0.00,,CLR,0.00,VWS V14.01,2013-09-24 17:43:00,
2013-09-24 12:49:00,70.0,29.4,29.88,SSE,152,5.4,5.8,22,0.00,,CLR,0.00,VWS V14.01,2013-09-24 17:49:00,
2013-09-24 12:55:00,69.8,29.3,29.88,SSE,166,5.4,5.4,22,0.00,,CLR,0.00,VWS V14.01,2013-09-24 17:55:00,
2013-09-24 13:00:00,69.8,29.3,29.88,SSE,167,8.7,8.7,22,0.00,,FEW033,0.00,VWS V14.01,2013-09-24 18:00:00,
2013-09-24 13:06:00,69.6,29.1,29.88,ESE,113,6.3,6.3,22,0.00,,FEW033,0.00,VWS V14.01,2013-09-24 18:06:00,
2013-09-24 13:12:00,69.8,29.3,29.88,SSE,153,4.0,6.3,22,0.00,,FEW033,0.00,VWS V14.01,2013-09-24 18:12:00,
2013-09-24 13:17:00,70.0,29.4,29.88,South,183,4.9,5.8,22,0.00,,FEW033,0.00,VWS V14.01,2013-09-24 18:17:00,
2013-09-24 13:23:00,69.8,29.3,29.88,SE,143,4.9,9.6,22,0.00,,FEW033,0.00,VWS V14.01,2013-09-24 18:23:00,
2013-09-24 13:28:00,69.6,29.1,29.88,ENE,74,0.0,2.2,22,0.00,,FEW033,0.00,VWS V14.01,2013-09-24 18:28:00,
2013-09-24 13:34:00,70.2,29.6,29.88,East,94,5.4,5.4,22,0.00,,FEW033,0.00,VWS V14.01,2013-09-24 18:34:00,
2013-09-24 13:39:00,70.5,29.9,29.88,SE,144,3.1,8.1,22,0.00,,FEW033,0.00,VWS V14.01,2013-09-24 18:39:00,
2013-09-24 13:44:00,70.5,29.9,29.88,SE,133,0.0,2.2,22,0.00,,FEW033,0.00,VWS V14.01,2013-09-24 18:44:00,
2013-09-24 13:49:00,70.7,30.0,29.88,ESE,109,4.9,10.5,22,0.00,,FEW033,0.00,VWS V14.01,2013-09-24 18:49:00,
2013-09-24 13:54:00,70.9,30.2,29.88,SSE,148,6.3,7.6,22,0.00,,FEW033,0.00,VWS V14.01,2013-09-24 18:54:00,
2013-09-24 13:59:00,71.2,30.5,29.88,NE,37,4.0,5.4,22,0.00,,FEW033,0.00,VWS V14.01,2013-09-24 18:59:00,
2013-09-24 14:05:00,71.8,30.9,29.88,SE,135,0.0,3.1,22,0.00,,SCT035,0.00,VWS V14.01,2013-09-24 19:05:00,
2013-09-24 14:11:00,71.8,29.8,29.88,SSE,154,0.0,2.7,21,0.00,,SCT035,0.00,VWS V14.01,2013-09-24 19:11:00,
2013-09-24 14:16:00,72.0,29.9,29.88,East,98,3.6,6.3,21,0.00,,SCT035,0.00,VWS V14.01,2013-09-24 19:16:00,
2013-09-24 14:21:00,71.6,29.6,29.88,ESE,116,5.4,8.1,21,0.00,,SCT035,0.00,VWS V14.01,2013-09-24 19:21:00,
2013-09-24 14:26:00,71.8,29.8,29.88,ESE,117,11.9,11.9,21,0.00,,SCT035,0.00,VWS V14.01,2013-09-24 19:26:00,
2013-09-24 14:32:00,72.1,30.1,29.88,ESE,110,3.6,5.4,21,0.00,,SCT035,0.00,VWS V14.01,2013-09-24 19:32:00,
2013-09-24 14:37:00,72.3,30.2,29.88,ESE,123,8.1,8.3,21,0.00,,SCT035,0.00,VWS V14.01,2013-09-24 19:37:00,
2013-09-24 14:42:00,72.3,30.2,29.88,East,100,6.3,6.3,21,0.00,,SCT035,0.00,VWS V14.01,2013-09-24 19:42:00,
2013-09-24 14:47:00,72.1,30.1,29.88,NNE,31,0.0,0.0,21,0.00,,SCT035,0.00,VWS V14.01,2013-09-24 19:47:00,
2013-09-24 14:52:00,72.3,30.2,29.88,SE,129,3.1,4.0,21,0.00,,SCT035,0.00,VWS V14.01,2013-09-24 19:52:00,
2013-09-24 14:58:00,72.5,30.4,29.88,ENE,66,6.3,6.3,21,0.00,,SCT035,0.00,VWS V14.01,2013-09-24 19:58:00,
2013-09-24 15:03:00,72.9,30.7,29.88,East,97,3.6,6.3,21,0.00,,SCT037,0.00,VWS V14.01,2013-09-24 20:03:00,
2013-09-24 15:09:00,73.4,31.1,29.88,ENE,71,3.6,4.0,21,0.00,,SCT037,0.00,VWS V14.01,2013-09-24 20:09:00,
2013-09-24 15:15:00,73.8,31.4,29.88,SSW,199,3.6,4.5,21,0.00,,SCT037,0.00,VWS V14.01,2013-09-24 20:15:00,
2013-09-24 15:20:00,73.9,27.8,29.85,SE,136,4.0,6.3,18,0.00,,SCT037,0.00,VWS V14.01,2013-09-24 20:20:00,
2013-09-24 15:25:00,74.1,27.9,29.85,SSE,155,3.6,4.0,18,0.00,,SCT037,0.00,VWS V14.01,2013-09-24 20:25:00,
2013-09-24 15:30:00,73.8,27.6,29.85,ESE,111,3.1,3.1,18,0.00,,SCT037,0.00,VWS V14.01,2013-09-24 20:30:00,
2013-09-24 15:36:00,73.6,27.5,29.85,East,101,8.1,8.1,18,0.00,,SCT037,0.00,VWS V14.01,2013-09-24 20:36:00,
2013-09-24 15:41:00,72.9,28.2,29.85,SSE,156,0.0,4.9,19,0.00,,SCT037,0.00,VWS V14.01,2013-09-24 20:41:00,
2013-09-24 15:46:00,72.5,27.9,29.85,ESE,115,4.0,4.9,19,0.00,,SCT037,0.00,VWS V14.01,2013-09-24 20:46:00,
2013-09-24 15:52:00,72.9,28.2,29.85,SSE,156,2.7,3.6,19,0.00,,SCT037,0.00,VWS V14.01,2013-09-24 20:52:00,
2013-09-24 15:57:00,73.0,28.4,29.85,ESE,122,0.0,2.7,19,0.00,,SCT037,0.00,VWS V14.01,2013-09-24 20:57:00,
2013-09-24 16:03:00,73.0,28.4,29.85,South,171,4.0,4.0,19,0.00,,BKN039,0.00,VWS V14.01,2013-09-24 21:03:00,
2013-09-24 16:08:00,73.4,27.4,29.85,SSE,167,4.9,5.4,18,0.00,,BKN039,0.00,VWS V14.01,2013-09-24 21:08:00,
2013-09-24 16:13:00,73.8,27.6,29.85,ENE,64,2.7,5.4,18,0.00,,BKN039,0.00,VWS V14.01,2013-09-24 21:13:00,
2013-09-24 16:18:00,73.8,27.6,29.85,SE,135,2.7,7.6,18,0.00,,BKN039,0.00,VWS V14.01,2013-09-24 21:18:00,
2013-09-24 16:23:00,74.1,27.9,29.85,South,169,4.9,5.4,18,0.00,,BKN039,0.00,VWS V14.01,2013-09-24 21:23:00,
2013-09-24 16:28:00,74.3,28.1,29.85,ENE,69,2.2,3.6,18,0.00,,BKN039,0.00,VWS V14.01,2013-09-24 21:28:00,
2013-09-24 16:33:00,74.5,28.2,29.85,ESE,104,4.9,4.9,18,0.00,,BKN039,0.00,VWS V14.01,2013-09-24 21:33:00,
2013-09-24 16:39:00,74.3,28.1,29.85,SSW,205,5.4,6.3,18,0.00,,BKN039,0.00,VWS V14.01,2013-09-24 21:39:00,
2013-09-24 16:45:00,74.1,27.9,29.85,ESE,109,4.0,5.4,18,0.00,,BKN039,0.00,VWS V14.01,2013-09-24 21:45:00,
2013-09-24 16:50:00,73.9,27.8,29.85,East,98,8.3,8.3,18,0.00,,BKN039,0.00,VWS V14.01,2013-09-24 21:50:00,
2013-09-24 16:56:00,74.1,27.9,29.85,ESE,106,0.0,0.0,18,0.00,,BKN039,0.00,VWS V14.01,2013-09-24 21:56:00,
2013-09-24 17:01:00,73.9,27.8,29.85,East,97,5.4,5.4,18,0.00,,BKN039,0.00,VWS V14.01,2013-09-24 22:01:00,
2013-09-24 17:06:00,73.6,27.5,29.85,ESE,108,2.7,5.4,18,0.00,,BKN039,0.00,VWS V14.01,2013-09-24 22:06:00,
2013-09-24 17:11:00,73.4,27.4,29.85,ESE,103,2.2,2.7,18,0.00,,BKN039,0.00,VWS V14.01,2013-09-24 22:11:00,
2013-09-24 17:17:00,73.4,27.4,29.85,SE,129,8.1,8.1,18,0.00,,BKN039,0.00,VWS V14.01,2013-09-24 22:17:00,
2013-09-24 17:22:00,72.5,27.9,29.85,East,87,7.6,7.6,19,0.00,,BKN039,0.00,VWS V14.01,2013-09-24 22:22:00,
2013-09-24 17:27:00,72.1,27.6,29.85,East,91,5.4,5.4,19,0.00,,BKN039,0.00,VWS V14.01,2013-09-24 22:27:00,
2013-09-24 17:33:00,71.6,27.2,29.85,East,98,4.0,7.6,19,0.00,,BKN039,0.00,VWS V14.01,2013-09-24 22:33:00,
2013-09-24 17:38:00,70.7,26.5,29.85,East,96,4.0,10.1,19,0.00,,BKN039,0.00,VWS V14.01,2013-09-24 22:38:00,
2013-09-24 17:44:00,69.6,26.8,29.85,ESE,106,8.1,8.1,20,0.00,,BKN039,0.00,VWS V14.01,2013-09-24 22:44:00,
2013-09-24 17:49:00,68.4,25.8,29.85,ESE,114,3.1,5.4,20,0.00,,BKN039,0.00,VWS V14.01,2013-09-24 22:49:00,
2013-09-24 17:54:00,67.5,27.3,29.85,ESE,105,6.3,8.1,22,0.00,,BKN039,0.00,VWS V14.01,2013-09-24 22:54:00,
2013-09-24 18:00:00,66.4,26.4,29.85,ESE,109,4.0,4.9,22,0.00,,BKN039,0.00,VWS V14.01,2013-09-24 23:00:00,
2013-09-24 18:06:00,65.7,26.9,29.85,ESE,114,0.0,3.1,23,0.00,,CLR,0.00,VWS V14.01,2013-09-24 23:06:00,
2013-09-24 18:11:00,65.1,26.4,29.85,ESE,110,0.0,0.0,23,0.00,,CLR,0.00,VWS V14.01,2013-09-24 23:11:00,
2013-09-24 18:16:00,64.4,25.8,29.85,East,98,4.9,6.3,23,0.00,,CLR,0.00,VWS V14.01,2013-09-24 23:16:00,
2013-09-24 18:22:00,63.9,26.4,29.85,SE,140,0.0,0.0,24,0.00,,CLR,0.00,VWS V14.01,2013-09-24 23:22:00,
2013-09-24 18:27:00,63.3,25.9,29.85,SE,133,3.1,4.0,24,0.00,,CLR,0.00,VWS V14.01,2013-09-24 23:27:00,
2013-09-24 18:33:00,62.8,25.5,29.85,ESE,114,0.0,5.8,24,0.00,,CLR,0.00,VWS V14.01,2013-09-24 23:33:00,
2013-09-24 18:38:00,62.2,26.0,29.85,SE,131,4.9,5.4,25,0.00,,CLR,0.00,VWS V14.01,2013-09-24 23:38:00,
2013-09-24 18:44:00,61.7,25.5,29.85,ESE,122,0.0,3.6,25,0.00,,CLR,0.00,VWS V14.01,2013-09-24 23:44:00,
2013-09-24 18:49:00,61.3,25.2,29.85,ESE,106,0.0,3.6,25,0.00,,CLR,0.00,VWS V14.01,2013-09-24 23:49:00,
2013-09-24 18:55:00,60.8,25.7,29.85,ESE,112,0.0,4.0,26,0.00,,CLR,0.00,VWS V14.01,2013-09-24 23:55:00,
2013-09-24 19:00:00,60.4,26.3,29.85,ESE,112,2.2,4.0,27,0.00,,CLR,0.00,VWS V14.01,2013-09-25 00:00:00,
2013-09-24 19:05:00,59.9,25.9,29.85,East,101,0.0,0.0,27,0.00,,CLR,0.00,VWS V14.01,2013-09-25 00:05:00,
2013-09-24 19:10:00,59.5,26.4,29.85,East,100,5.4,5.8,28,0.00,,CLR,0.00,VWS V14.01,2013-09-25 00:10:00,
2013-09-24 19:15:00,59.2,26.1,29.85,East,96,2.7,5.8,28,0.00,,CLR,0.00,VWS V14.01,2013-09-25 00:15:00,
2013-09-24 19:20:00,58.8,26.6,29.88,East,96,0.0,0.0,29,0.00,,CLR,0.00,VWS V14.01,2013-09-25 00:20:00,
2013-09-24 19:25:00,58.5,27.2,29.88,ESE,107,6.3,6.3,30,0.00,,CLR,0.00,VWS V14.01,2013-09-25 00:25:00,
2013-09-24 19:30:00,58.1,27.6,29.88,SE,132,4.0,4.9,31,0.00,,CLR,0.00,VWS V14.01,2013-09-25 00:30:00,
2013-09-24 19:36:00,57.6,28.0,29.88,ESE,113,3.6,4.0,32,0.00,,CLR,0.00,VWS V14.01,2013-09-25 00:36:00,
2013-09-24 19:41:00,57.2,28.4,29.88,ESE,117,2.7,4.0,33,0.00,,CLR,0.00,VWS V14.01,2013-09-25 00:41:00,
2013-09-24 19:47:00,57.0,29.0,29.88,ESE,109,3.6,4.0,34,0.00,,CLR,0.00,VWS V14.01,2013-09-25 00:47:00,
2013-09-24 19:53:00,56.7,29.3,29.88,ESE,112,2.7,3.1,35,0.00,,CLR,0.00,VWS V14.01,2013-09-25 00:53:00,
2013-09-24 19:58:00,56.3,29.0,29.88,ESE,102,3.6,5.8,35,0.00,,CLR,0.00,VWS V14.01,2013-09-25 00:58:00,
2013-09-24 20:03:00,56.1,29.5,29.88,ESE,104,3.6,3.6,36,0.00,,CLR,0.00,VWS V14.01,2013-09-25 01:03:00,
2013-09-24 20:08:00,55.9,29.4,29.88,ENE,72,3.1,6.3,36,0.00,,CLR,0.00,VWS V14.01,2013-09-25 01:08:00,
2013-09-24 20:13:00,55.8,29.2,29.88,East,94,0.0,0.0,36,0.00,,CLR,0.00,VWS V14.01,2013-09-25 01:13:00,
2013-09-24 20:19:00,55.4,28.9,29.88,East,97,2.2,3.1,36,0.00,,CLR,0.00,VWS V14.01,2013-09-25 01:19:00,
2013-09-24 20:24:00,55.2,29.4,29.88,ESE,117,0.0,0.0,37,0.00,,CLR,0.00,VWS V14.01,2013-09-25 01:24:00,
2013-09-24 20:29:00,55.0,29.3,29.88,ESE,117,0.0,0.0,37,0.00,,CLR,0.00,VWS V14.01,2013-09-25 01:29:00,
2013-09-24 20:34:00,54.7,28.9,29.88,ESE,109,0.0,2.7,37,0.00,,CLR,0.00,VWS V14.01,2013-09-25 01:34:00,
2013-09-24 20:40:00,54.5,29.4,29.88,ESE,108,0.0,0.0,38,0.00,,CLR,0.00,VWS V14.01,2013-09-25 01:40:00,
2013-09-24 20:45:00,54.1,29.1,29.88,ESE,114,0.0,0.0,38,0.00,,CLR,0.00,VWS V14.01,2013-09-25 01:45:00,
2013-09-24 20:50:00,54.0,29.0,29.88,ESE,113,0.0,0.0,38,0.00,,CLR,0.00,VWS V14.01,2013-09-25 01:50:00,
2013-09-24 20:56:00,53.6,29.3,29.88,ESE,112,0.0,0.0,39,0.00,,CLR,0.00,VWS V14.01,2013-09-25 01:56:00,
2013-09-24 21:01:00,53.4,29.1,29.88,ESE,109,0.0,0.0,39,0.00,,CLR,0.00,VWS V14.01,2013-09-25 02:01:00,
2013-09-24 21:07:00,53.1,29.4,29.88,ESE,109,0.0,0.0,40,0.00,,CLR,0.00,VWS V14.01,2013-09-25 02:07:00,
2013-09-24 21:12:00,52.9,29.2,29.88,ESE,109,0.0,0.0,40,0.00,,CLR,0.00,VWS V14.01,2013-09-25 02:12:00,
2013-09-24 21:18:00,52.7,29.7,29.88,ESE,109,0.0,0.0,41,0.00,,CLR,0.00,VWS V14.01,2013-09-25 02:18:00,
2013-09-24 21:24:00,52.3,29.4,29.88,ESE,109,0.0,0.0,41,0.00,,CLR,0.00,VWS V14.01,2013-09-25 02:24:00,
2013-09-24 21:29:00,52.2,29.2,29.88,ESE,109,0.0,0.0,41,0.00,,CLR,0.00,VWS V14.01,2013-09-25 02:29:00,
2013-09-24 21:35:00,51.8,29.5,29.88,ESE,109,0.0,0.0,42,0.00,,CLR,0.00,VWS V14.01,2013-09-25 02:35:00,
2013-09-24 21:40:00,51.6,29.9,29.88,ESE,109,0.0,0.0,43,0.00,,CLR,0.00,VWS V14.01,2013-09-25 02:40:00,
2013-09-24 21:46:00,51.1,29.4,29.88,ESE,109,0.0,0.0,43,0.00,,CLR,0.00,VWS V14.01,2013-09-25 02:46:00,
2013-09-24 21:52:00,50.7,29.6,29.88,ESE,109,0.0,0.0,44,0.00,,CLR,0.00,VWS V14.01,2013-09-25 02:52:00,
2013-09-24 21:57:00,50.5,29.5,29.88,ESE,109,0.0,0.0,44,0.00,,CLR,0.00,VWS V14.01,2013-09-25 02:57:00,
2013-09-24 22:02:00,50.4,29.8,29.88,ESE,109,0.0,0.0,45,0.00,,CLR,0.00,VWS V14.01,2013-09-25 03:02:00,
2013-09-24 22:07:00,50.2,29.7,29.88,ESE,109,0.0,0.0,45,0.00,,CLR,0.00,VWS V14.01,2013-09-25 03:07:00,
2013-09-24 22:12:00,50.0,30.0,29.88,ESE,109,0.0,0.0,46,0.00,,CLR,0.00,VWS V14.01,2013-09-25 03:12:00,
2013-09-24 22:18:00,50.0,30.0,29.88,ESE,109,0.0,0.0,46,0.00,,CLR,0.00,VWS V14.01,2013-09-25 03:18:00,
2013-09-24 22:24:00,50.0,30.6,29.88,ESE,109,0.0,0.0,47,0.00,,CLR,0.00,VWS V14.01,2013-09-25 03:24:00,
2013-09-24 22:29:00,49.8,30.4,29.88,ESE,109,0.0,0.0,47,0.00,,CLR,0.00,VWS V14.01,2013-09-25 03:29:00,
2013-09-24 22:35:00,49.6,30.8,29.88,ESE,109,0.0,0.0,48,0.00,,CLR,0.00,VWS V14.01,2013-09-25 03:35:00,
2013-09-24 22:40:00,49.6,30.8,29.88,ESE,109,0.0,0.0,48,0.00,,CLR,0.00,VWS V14.01,2013-09-25 03:40:00,
2013-09-24 22:45:00,49.5,30.6,29.88,ESE,109,0.0,0.0,48,0.00,,CLR,0.00,VWS V14.01,2013-09-25 03:45:00,
2013-09-24 22:50:00,49.5,31.1,29.88,ESE,109,0.0,0.0,49,0.00,,CLR,0.00,VWS V14.01,2013-09-25 03:50:00,
2013-09-24 22:55:00,49.3,31.0,29.88,ESE,109,0.0,0.0,49,0.00,,CLR,0.00,VWS V14.01,2013-09-25 03:55:00,
2013-09-24 23:00:00,49.3,31.5,29.88,ESE,109,0.0,0.0,50,0.00,,CLR,0.00,VWS V14.01,2013-09-25 04:00:00,
2013-09-24 23:01:00,49.3,31.5,29.88,ESE,109,0.0,0.0,50,0.00,,CLR,0.00,VWS V14.01,2013-09-25 04:01:00,
2013-09-24 23:02:00,49.3,31.5,29.88,ENE,74,2.2,5.8,50,0.00,,CLR,0.00,VWS V14.01,2013-09-25 04:02:00,
2013-09-24 23:04:00,49.3,31.5,29.88,East,99,4.0,4.0,50,0.00,,CLR,0.00,VWS V14.01,2013-09-25 04:04:00,
2013-09-24 23:06:00,49.3,31.5,29.88,ESE,105,2.7,4.0,50,0.00,,CLR,0.00,VWS V14.01,2013-09-25 04:06:00,
2013-09-24 23:11:00,49.3,31.9,29.88,East,97,0.0,0.0,51,0.00,,CLR,0.00,VWS V14.01,2013-09-25 04:11:00,
2013-09-24 23:16:00,49.3,31.9,29.88,East,97,0.0,0.0,51,0.00,,CLR,0.00,VWS V14.01,2013-09-25 04:16:00,
2013-09-24 23:21:00,49.3,32.4,29.85,East,97,0.0,0.0,52,0.00,,CLR,0.00,VWS V14.01,2013-09-25 04:21:00,
2013-09-24 23:27:00,49.3,32.4,29.85,East,97,0.0,0.0,52,0.00,,CLR,0.00,VWS V14.01,2013-09-25 04:27:00,
2013-09-24 23:32:00,49.1,32.7,29.85,East,97,0.0,0.0,53,0.00,,CLR,0.00,VWS V14.01,2013-09-25 04:32:00,
2013-09-24 23:38:00,48.9,32.6,29.88,East,97,0.0,0.0,53,0.00,,CLR,0.00,VWS V14.01,2013-09-25 04:38:00,
2013-09-24 23:44:00,48.7,32.4,29.88,East,97,0.0,0.0,53,0.00,,CLR,0.00,VWS V14.01,2013-09-25 04:44:00,
2013-09-24 23:49:00,48.6,32.7,29.88,East,97,0.0,0.0,54,0.00,,CLR,0.00,VWS V14.01,2013-09-25 04:49:00,
2013-09-24 23:55:00,48.2,32.3,29.88,East,97,0.0,0.0,54,0.00,,CLR,0.00,VWS V14.01,2013-09-25 04:55:00,